Time,TemperatureF,DewpointF,PressureIn,WindDirection,WindDirectionDegrees,WindSpeedMPH,WindSpeedGustMPH,Humidity,HourlyPrecipIn,Conditions,Clouds,dailyrainin,SolarRadiationWatts/m^2,SoftwareType,DateUTC
2013-01-15 00:22:00,11.0,8.0,-100.00,ESE,102,0.0,2.0,88,0.00,,,0.00,0.000000,,2013-01-15 07:22:00,
2013-01-15 00:32:00,11.0,8.0,-100.00,ESE,102,0.0,2.0,88,0.00,,,0.00,0.000000,,2013-01-15 07:32:00,
2013-01-15 00:42:00,11.0,8.0,-100.00,ESE,102,0.0,2.0,88,0.00,,,0.00,0.000000,,2013-01-15 07:42:00,
2013-01-15 00:52:00,11.0,8.0,-100.00,ESE,102,0.0,2.0,88,0.00,,,0.00,0.000000,,2013-01-15 07:52:00,
2013-01-15 01:22:00,12.0,9.0,-100.00,SE,138,0.0,2.0,88,0.00,,,0.00,0.000000,,2013-01-15 08:22:00,
2013-01-15 01:32:00,12.0,9.0,-100.00,SE,138,0.0,2.0,88,0.00,,,0.00,0.000000,,2013-01-15 08:32:00,
2013-01-15 01:42:00,12.0,9.0,-100.00,SE,138,0.0,2.0,88,0.00,,,0.00,0.000000,,2013-01-15 08:42:00,
2013-01-15 01:52:00,12.0,9.0,-100.00,SE,138,0.0,2.0,88,0.00,,,0.00,0.000000,,2013-01-15 08:52:00,
2013-01-15 02:22:00,12.0,9.0,-100.00,East,86,0.0,2.0,88,0.00,,,0.00,0.000000,,2013-01-15 09:22:00,
2013-01-15 02:33:00,12.0,9.0,-100.00,East,86,0.0,2.0,88,0.00,,,0.00,0.000000,,2013-01-15 09:33:00,
2013-01-15 02:42:00,12.0,9.0,-100.00,East,86,0.0,2.0,88,0.00,,,0.00,0.000000,,2013-01-15 09:42:00,
2013-01-15 02:52:00,12.0,9.0,-100.00,East,86,0.0,2.0,88,0.00,,,0.00,0.000000,,2013-01-15 09:52:00,
2013-01-15 03:22:00,12.0,9.0,-100.00,East,85,0.0,4.0,88,0.00,,,0.00,0.000000,,2013-01-15 10:22:00,
2013-01-15 03:32:00,12.0,9.0,-100.00,East,85,0.0,4.0,88,0.00,,,0.00,0.000000,,2013-01-15 10:32:00,
2013-01-15 03:42:00,12.0,9.0,-100.00,East,85,0.0,4.0,88,0.00,,,0.00,0.000000,,2013-01-15 10:42:00,
2013-01-15 03:52:00,12.0,9.0,-100.00,East,85,0.0,4.0,88,0.00,,,0.00,0.000000,,2013-01-15 10:52:00,
2013-01-15 04:12:00,12.0,9.0,-100.00,East,88,1.0,3.0,88,0.00,,,0.00,0.000000,,2013-01-15 11:12:00,
2013-01-15 04:22:00,12.0,9.0,-100.00,East,88,1.0,3.0,88,0.00,,,0.00,0.000000,,2013-01-15 11:22:00,
2013-01-15 04:32:00,12.0,9.0,-100.00,East,88,1.0,3.0,88,0.00,,,0.00,0.000000,,2013-01-15 11:32:00,
2013-01-15 04:42:00,12.0,9.0,-100.00,East,88,1.0,3.0,88,0.00,,,0.00,0.000000,,2013-01-15 11:42:00,
2013-01-15 04:52:00,12.0,9.0,-100.00,East,88,1.0,3.0,88,0.00,,,0.00,0.000000,,2013-01-15 11:52:00,
2013-01-15 05:22:00,12.0,9.0,-100.00,East,94,1.0,3.0,88,0.00,,,0.00,0.000000,,2013-01-15 12:22:00,
2013-01-15 05:32:00,12.0,9.0,-100.00,East,94,1.0,3.0,88,0.00,,,0.00,0.000000,,2013-01-15 12:32:00,
2013-01-15 05:42:00,12.0,9.0,-100.00,East,94,1.0,3.0,88,0.00,,,0.00,0.000000,,2013-01-15 12:42:00,
2013-01-15 05:53:00,12.0,9.0,-100.00,East,94,1.0,3.0,88,0.00,,,0.00,0.000000,,2013-01-15 12:53:00,
2013-01-15 06:23:00,12.0,9.0,-100.00,East,94,2.0,4.0,88,0.00,,,0.00,0.000000,,2013-01-15 13:23:00,
2013-01-15 06:33:00,12.0,9.0,-100.00,East,94,2.0,4.0,88,0.00,,,0.00,0.000000,,2013-01-15 13:33:00,
2013-01-15 06:42:00,12.0,9.0,-100.00,East,94,2.0,4.0,88,0.00,,,0.00,0.000000,,2013-01-15 13:42:00,
2013-01-15 06:53:00,12.0,9.0,-100.00,East,94,2.0,4.0,88,0.00,,,0.00,0.000000,,2013-01-15 13:53:00,
2013-01-15 07:23:00,13.0,10.0,-100.00,East,94,1.0,4.0,88,0.00,,,0.00,0.000000,,2013-01-15 14:23:00,
2013-01-15 07:33:00,13.0,10.0,-100.00,East,94,1.0,4.0,88,0.00,,,0.00,0.000000,,2013-01-15 14:33:00,
2013-01-15 07:42:00,13.0,10.0,-100.00,East,94,1.0,4.0,88,0.00,,,0.00,0.000000,,2013-01-15 14:42:00,
2013-01-15 07:53:00,13.0,10.0,-100.00,East,94,1.0,4.0,88,0.00,,,0.00,0.000000,,2013-01-15 14:53:00,
2013-01-15 08:23:00,13.0,10.0,-100.00,East,97,0.0,3.0,88,0.00,,,0.00,0.000000,,2013-01-15 15:23:00,
2013-01-15 08:33:00,13.0,10.0,-100.00,East,97,0.0,3.0,88,0.00,,,0.00,0.000000,,2013-01-15 15:33:00,
2013-01-15 08:43:00,13.0,10.0,-100.00,East,97,0.0,3.0,88,0.00,,,0.00,0.000000,,2013-01-15 15:43:00,
2013-01-15 08:52:00,13.0,10.0,-100.00,East,97,0.0,3.0,88,0.00,,,0.00,0.000000,,2013-01-15 15:52:00,
2013-01-15 09:22:00,14.0,11.0,-100.00,East,89,1.0,3.0,88,0.00,,,0.00,4.000000,,2013-01-15 16:22:00,
2013-01-15 09:33:00,14.0,11.0,-100.00,East,89,1.0,3.0,88,0.00,,,0.00,4.000000,,2013-01-15 16:33:00,
2013-01-15 09:42:00,14.0,11.0,-100.00,East,89,1.0,3.0,88,0.00,,,0.00,4.000000,,2013-01-15 16:42:00,
2013-01-15 09:53:00,14.0,11.0,-100.00,East,89,1.0,3.0,88,0.00,,,0.00,4.000000,,2013-01-15 16:53:00,
2013-01-15 10:22:00,16.0,12.0,-100.00,East,87,2.0,3.0,85,0.00,,,0.00,27.000000,,2013-01-15 17:22:00,
2013-01-15 10:33:00,16.0,12.0,-100.00,East,87,2.0,3.0,85,0.00,,,0.00,27.000000,,2013-01-15 17:33:00,
2013-01-15 10:42:00,16.0,12.0,-100.00,East,87,2.0,3.0,85,0.00,,,0.00,27.000000,,2013-01-15 17:42:00,
2013-01-15 10:53:00,16.0,12.0,-100.00,East,87,2.0,3.0,85,0.00,,,0.00,27.000000,,2013-01-15 17:53:00,
2013-01-15 11:23:00,20.0,15.0,-100.00,East,83,0.0,4.0,80,0.00,,,-99.99,52.000000,,2013-01-15 18:23:00,
2013-01-15 11:33:00,20.0,15.0,-100.00,East,83,0.0,4.0,80,0.00,,,-99.99,52.000000,,2013-01-15 18:33:00,
2013-01-15 11:42:00,20.0,15.0,-100.00,East,83,0.0,4.0,80,0.00,,,-99.99,52.000000,,2013-01-15 18:42:00,
2013-01-15 11:53:00,20.0,15.0,-100.00,East,83,0.0,4.0,80,0.00,,,-99.99,52.000000,,2013-01-15 18:53:00,
2013-01-15 12:22:00,25.0,17.0,-100.00,East,94,1.0,3.0,72,0.01,,,0.01,74.000000,,2013-01-15 19:22:00,
2013-01-15 12:33:00,25.0,17.0,-100.00,East,94,1.0,3.0,72,0.01,,,0.01,74.000000,,2013-01-15 19:33:00,
2013-01-15 12:42:00,25.0,17.0,-100.00,East,94,1.0,3.0,72,0.01,,,0.01,74.000000,,2013-01-15 19:42:00,
2013-01-15 12:52:00,25.0,17.0,-100.00,East,94,1.0,3.0,72,0.01,,,0.01,74.000000,,2013-01-15 19:52:00,
2013-01-15 14:22:00,30.0,17.0,-100.00,SW,227,2.0,5.0,59,-99.99,,,0.18,416.000000,,2013-01-15 21:22:00,
2013-01-15 14:33:00,30.0,17.0,-100.00,SW,227,2.0,5.0,59,-99.99,,,0.18,416.000000,,2013-01-15 21:33:00,
2013-01-15 14:43:00,30.0,17.0,-100.00,SW,227,2.0,5.0,59,-99.99,,,0.18,416.000000,,2013-01-15 21:43:00,
2013-01-15 14:52:00,30.0,17.0,-100.00,SW,227,2.0,5.0,59,-99.99,,,0.18,416.000000,,2013-01-15 21:52:00,
2013-01-15 15:22:00,28.0,18.0,-100.00,WNW,299,2.0,5.0,66,0.09,,,0.27,356.000000,,2013-01-15 22:22:00,
2013-01-15 15:33:00,28.0,18.0,-100.00,WNW,299,2.0,5.0,66,0.09,,,0.27,356.000000,,2013-01-15 22:33:00,
2013-01-15 15:42:00,28.0,18.0,-100.00,WNW,299,2.0,5.0,66,0.09,,,0.27,356.000000,,2013-01-15 22:42:00,
2013-01-15 15:52:00,28.0,18.0,-100.00,WNW,299,2.0,5.0,66,0.09,,,0.27,356.000000,,2013-01-15 22:52:00,
2013-01-15 16:22:00,32.0,19.0,-100.00,SW,219,0.0,5.0,59,0.03,,,0.30,258.000000,,2013-01-15 23:22:00,
2013-01-15 16:42:00,32.0,19.0,-100.00,SW,219,0.0,5.0,59,0.03,,,0.30,258.000000,,2013-01-15 23:42:00,
2013-01-15 16:52:00,32.0,19.0,-100.00,SW,219,0.0,5.0,59,0.03,,,0.30,258.000000,,2013-01-15 23:52:00,
2013-01-15 17:22:00,26.0,18.0,-100.00,WSW,256,1.0,4.0,72,-99.99,,,0.31,146.000000,,2013-01-16 00:22:00,
2013-01-15 17:32:00,26.0,18.0,-100.00,WSW,256,1.0,4.0,72,-99.99,,,0.31,146.000000,,2013-01-16 00:32:00,
2013-01-15 17:42:00,26.0,18.0,-100.00,WSW,256,1.0,4.0,72,-99.99,,,0.31,146.000000,,2013-01-16 00:42:00,
2013-01-15 17:52:00,26.0,18.0,-100.00,WSW,256,1.0,4.0,72,-99.99,,,0.31,146.000000,,2013-01-16 00:52:00,
2013-01-15 18:22:00,20.0,17.0,-100.00,East,81,1.0,3.0,87,0.00,,,0.31,11.000000,,2013-01-16 01:22:00,
2013-01-15 18:33:00,20.0,17.0,-100.00,East,81,1.0,3.0,87,0.00,,,0.31,11.000000,,2013-01-16 01:33:00,
2013-01-15 18:42:00,20.0,17.0,-100.00,East,81,1.0,3.0,87,0.00,,,0.31,11.000000,,2013-01-16 01:42:00,
2013-01-15 18:52:00,20.0,17.0,-100.00,East,81,1.0,3.0,87,0.00,,,0.31,11.000000,,2013-01-16 01:52:00,
2013-01-15 19:22:00,19.0,17.0,-100.00,SSE,157,1.0,3.0,90,0.00,,,0.31,0.000000,,2013-01-16 02:22:00,
2013-01-15 19:32:00,19.0,17.0,-100.00,SSE,157,1.0,3.0,90,0.00,,,0.31,0.000000,,2013-01-16 02:32:00,
2013-01-15 19:42:00,19.0,17.0,-100.00,SSE,157,1.0,3.0,90,0.00,,,0.31,0.000000,,2013-01-16 02:42:00,
2013-01-15 19:52:00,19.0,17.0,-100.00,SSE,157,1.0,3.0,90,0.00,,,0.31,0.000000,,2013-01-16 02:52:00,
2013-01-15 20:22:00,19.0,17.0,-100.00,East,93,2.0,5.0,92,0.00,,,0.31,0.000000,,2013-01-16 03:22:00,
2013-01-15 20:32:00,19.0,17.0,-100.00,East,93,2.0,5.0,92,0.00,,,0.31,0.000000,,2013-01-16 03:32:00,
2013-01-15 20:42:00,19.0,17.0,-100.00,East,93,2.0,5.0,92,0.00,,,0.31,0.000000,,2013-01-16 03:42:00,
2013-01-15 20:52:00,19.0,17.0,-100.00,East,93,2.0,5.0,92,0.00,,,0.31,0.000000,,2013-01-16 03:52:00,
2013-01-15 21:22:00,19.0,17.0,-100.00,East,95,2.0,5.0,91,0.00,,,0.31,0.000000,,2013-01-16 04:22:00,
2013-01-15 21:32:00,19.0,17.0,-100.00,East,95,2.0,5.0,91,0.00,,,0.31,0.000000,,2013-01-16 04:32:00,
2013-01-15 21:42:00,19.0,17.0,-100.00,East,95,2.0,5.0,91,0.00,,,0.31,0.000000,,2013-01-16 04:42:00,
2013-01-15 21:52:00,19.0,17.0,-100.00,East,95,2.0,5.0,91,0.00,,,0.31,0.000000,,2013-01-16 04:52:00,
2013-01-15 22:22:00,18.0,16.0,-100.00,East,85,1.0,5.0,91,0.00,,,0.31,0.000000,,2013-01-16 05:22:00,
2013-01-15 22:32:00,18.0,16.0,-100.00,East,85,1.0,5.0,91,0.00,,,0.31,0.000000,,2013-01-16 05:32:00,
2013-01-15 22:42:00,18.0,16.0,-100.00,East,85,1.0,5.0,91,0.00,,,0.31,0.000000,,2013-01-16 05:42:00,
2013-01-15 22:52:00,18.0,16.0,-100.00,East,85,1.0,5.0,91,0.00,,,0.31,0.000000,,2013-01-16 05:52:00,
2013-01-15 23:22:00,17.0,15.0,-100.00,East,80,0.0,4.0,92,0.00,,,0.31,0.000000,,2013-01-16 06:22:00,
2013-01-15 23:32:00,17.0,15.0,-100.00,East,80,0.0,4.0,92,0.00,,,0.31,0.000000,,2013-01-16 06:32:00,
2013-01-15 23:42:00,17.0,15.0,-100.00,East,80,0.0,4.0,92,0.00,,,0.31,0.000000,,2013-01-16 06:42:00,
2013-01-15 23:52:00,17.0,15.0,-100.00,East,80,0.0,4.0,92,0.00,,,0.31,0.000000,,2013-01-16 06:52:00,